createdAt,value
2022-09-21T00:04:06.978Z,42.3
2022-09-21T00:09:25.854Z,42.3
2022-09-21T00:14:44.051Z,41.7
2022-09-21T00:20:02.844Z,41.5
2022-09-21T00:25:21.309Z,41.7
2022-09-21T00:30:39.804Z,41.6
2022-09-21T00:35:58.326Z,42.4
2022-09-21T00:41:16.509Z,41.6
2022-09-21T00:46:35.286Z,41.9
2022-09-21T00:51:54.072Z,41.9
2022-09-21T00:57:12.261Z,42.5
2022-09-21T01:02:30.952Z,42.3
2022-09-21T01:07:48.900Z,42.6
2022-09-21T01:13:07.358Z,42
2022-09-21T01:18:26.127Z,41.8
2022-09-21T01:23:44.910Z,42.5
2022-09-21T01:29:03.098Z,42.6
2022-09-21T01:34:21.029Z,42
2022-09-21T01:39:39.532Z,42.8
2022-09-21T01:44:58.000Z,42.1
2022-09-21T01:50:16.207Z,42.5
2022-09-21T01:55:34.728Z,43
2022-09-21T02:00:53.374Z,42.9
2022-09-21T02:06:12.135Z,42.3
2022-09-21T02:11:31.061Z,42.4
2022-09-21T02:16:49.808Z,43
2022-09-21T02:22:08.289Z,42.3
2022-09-21T02:27:26.520Z,43.1
2022-09-21T02:32:45.260Z,43.2
2022-09-21T02:38:03.758Z,42.7
2022-09-21T02:43:22.569Z,43.1
2022-09-21T02:48:40.736Z,42.9
2022-09-21T02:53:59.223Z,43.3
2022-09-21T02:59:17.475Z,43.1
2022-09-21T03:04:35.663Z,43
2022-09-21T03:09:54.423Z,43.4
2022-09-21T03:15:12.779Z,42.9
2022-09-21T03:20:31.280Z,43.5
2022-09-21T03:25:50.057Z,42.6
2022-09-21T03:31:08.760Z,43.2
2022-09-21T03:36:27.014Z,43.4
2022-09-21T03:41:29.890Z,42.8
2022-09-21T03:46:48.226Z,43.3
2022-09-21T03:52:06.406Z,42.8
2022-09-21T03:57:25.162Z,42.6
2022-09-21T04:02:43.805Z,43.4
2022-09-21T04:08:02.043Z,43.3
2022-09-21T04:13:20.246Z,42.6
2022-09-21T04:18:39.079Z,43
2022-09-21T04:23:57.515Z,43.6
2022-09-21T04:29:16.007Z,43.7
2022-09-21T04:34:34.597Z,37
2022-09-21T04:39:53.055Z,37.5
2022-09-21T04:45:11.546Z,38.6
2022-09-21T04:50:30.013Z,38.4
2022-09-21T04:55:48.485Z,39.5
2022-09-21T05:01:07.227Z,38.9
2022-09-21T05:06:25.229Z,40.1
2022-09-21T05:11:43.972Z,39.5
2022-09-21T05:17:02.178Z,39.2
2022-09-21T05:22:20.686Z,39.1
2022-09-21T05:27:39.422Z,39.1
2022-09-21T05:32:57.906Z,39
2022-09-21T05:38:16.716Z,39.7
2022-09-21T05:43:35.176Z,39.2
2022-09-21T05:48:53.657Z,38.8
2022-09-21T05:54:12.160Z,38.9
2022-09-21T05:59:30.629Z,38
2022-09-21T06:04:48.822Z,38.1
2022-09-21T06:10:07.332Z,38.7
2022-09-21T06:15:25.525Z,38.3
2022-09-21T06:20:44.283Z,38.1
2022-09-21T06:26:02.507Z,38.3
2022-09-21T06:31:20.971Z,38.6
2022-09-21T06:36:39.463Z,38.5
2022-09-21T06:41:57.972Z,38.9
2022-09-21T06:47:16.143Z,39.4
2022-09-21T06:52:34.634Z,38.2
2022-09-21T06:57:53.152Z,38.4
2022-09-21T07:03:11.613Z,39.5
2022-09-21T07:15:24.228Z,38.9
2022-09-21T07:20:42.685Z,38.4
2022-09-21T07:26:01.086Z,38.3
2022-09-21T07:31:19.581Z,39
2022-09-21T07:36:38.147Z,38.5
2022-09-21T07:41:56.619Z,38.7
2022-09-21T07:47:14.855Z,39.2
2022-09-21T07:52:33.307Z,38.7
2022-09-21T07:57:52.073Z,38.8
2022-09-21T08:03:10.592Z,39.4
2022-09-21T08:08:29.326Z,39.3
2022-09-21T08:13:48.097Z,38.7
2022-09-21T08:19:06.620Z,39.6
2022-09-21T08:24:25.355Z,38.8
2022-09-21T08:29:43.552Z,40.1
2022-09-21T08:35:02.349Z,39.7
2022-09-21T08:40:20.546Z,39.2
2022-09-21T08:45:38.992Z,40.8
2022-09-21T08:50:57.333Z,40.6
2022-09-21T08:56:15.784Z,40.5
2022-09-21T09:01:34.337Z,39.5
2022-09-21T09:06:52.907Z,39.7
2022-09-21T09:12:12.091Z,39.7
2022-09-21T09:17:30.854Z,39.9
2022-09-21T09:22:49.352Z,40.7
2022-09-21T09:28:07.527Z,41
2022-09-21T09:33:26.008Z,40.8
2022-09-21T09:38:44.554Z,39.9
2022-09-21T09:44:03.280Z,40.2
2022-09-21T09:49:22.046Z,40.9
2022-09-21T09:54:40.264Z,40.9
2022-09-21T09:59:58.398Z,39.9
2022-09-21T10:05:16.564Z,40.9
2022-09-21T10:10:34.503Z,40.1
2022-09-21T10:15:53.137Z,40.1
2022-09-21T10:21:11.613Z,40.1
2022-09-21T10:26:30.411Z,40.6
2022-09-21T10:31:48.879Z,39.9
2022-09-21T10:37:07.362Z,40.5
2022-09-21T10:42:25.597Z,39.9
2022-09-21T10:47:44.063Z,41.1
2022-09-21T10:53:02.276Z,40.2
2022-09-21T10:58:20.523Z,40.8
2022-09-21T11:03:39.282Z,40.7
2022-09-21T11:08:57.741Z,40.4
2022-09-21T11:14:15.735Z,40.7
2022-09-21T11:19:34.474Z,40.5
2022-09-21T11:24:52.962Z,39.8
2022-09-21T11:30:11.528Z,40.4
2022-09-21T11:35:29.973Z,40.1
2022-09-21T11:40:48.739Z,40.4
2022-09-21T11:46:07.487Z,39.5
2022-09-21T11:51:26.055Z,39.5
2022-09-21T11:56:44.819Z,39.9
2022-09-21T12:02:03.810Z,39.5
2022-09-21T12:07:22.113Z,40.3
2022-09-21T12:12:40.597Z,40.4
2022-09-21T12:17:59.089Z,39.8
2022-09-21T12:23:17.552Z,39.9
2022-09-21T12:28:36.035Z,39.8
2022-09-21T12:33:54.556Z,40.4
2022-09-21T12:39:12.996Z,40.6
2022-09-21T12:44:30.913Z,39.4
2022-09-21T12:49:49.434Z,39.9
2022-09-21T12:55:07.943Z,39.3
2022-09-21T13:00:26.429Z,38
2022-09-21T13:05:44.661Z,39.2
2022-09-21T13:11:03.389Z,39.3
2022-09-21T13:16:22.262Z,39.5
2022-09-21T13:21:40.757Z,38.4
2022-09-21T13:26:59.214Z,38.4
2022-09-21T13:32:17.628Z,38.6
2022-09-21T13:37:36.142Z,38.8
2022-09-21T13:42:54.310Z,38.6
2022-09-21T13:48:12.504Z,38.7
2022-09-21T13:53:31.305Z,39.1
2022-09-21T13:58:49.759Z,39.6
2022-09-21T14:04:07.973Z,39.4
2022-09-21T14:09:26.570Z,39
2022-09-21T14:14:44.754Z,38.7
2022-09-21T14:20:03.527Z,38.8
2022-09-21T14:25:21.861Z,38.2
2022-09-21T14:30:40.314Z,38.7
2022-09-21T14:35:59.089Z,38.9
2022-09-21T14:41:17.766Z,39
2022-09-21T14:46:36.486Z,38
2022-09-21T14:52:15.194Z,37.6
2022-09-21T14:57:36.587Z,38
2022-09-21T15:02:54.823Z,37.8
2022-09-21T15:08:13.577Z,38.7
2022-09-21T15:13:31.821Z,37.7
2022-09-21T15:18:50.550Z,37.5
2022-09-21T15:24:09.302Z,37.5
2022-09-21T15:29:27.549Z,38.3
2022-09-21T15:34:46.004Z,37.6
2022-09-21T15:40:04.153Z,37.8
2022-09-21T15:45:22.929Z,38.5
2022-09-21T15:50:41.393Z,38.9
2022-09-21T15:55:59.876Z,38.3
2022-09-21T16:01:18.990Z,38.8
2022-09-21T16:06:37.530Z,38.8
2022-09-21T16:11:56.011Z,38.8
2022-09-21T16:17:14.518Z,38.8
2022-09-21T16:22:32.711Z,38.8
2022-09-21T16:27:50.921Z,39.4
2022-09-21T16:33:09.776Z,39
2022-09-21T16:38:28.621Z,39.1
2022-09-21T16:43:47.114Z,38.6
2022-09-21T16:49:05.966Z,38.2
2022-09-21T16:54:24.691Z,38.3
2022-09-21T16:59:42.915Z,38.1
2022-09-21T17:05:01.145Z,38.2
2022-09-21T17:10:19.056Z,39.1
2022-09-21T17:15:37.676Z,38.1
2022-09-21T17:20:55.571Z,38.9
2022-09-21T17:26:13.754Z,39.9
2022-09-21T17:31:32.162Z,39.1
2022-09-21T17:36:50.391Z,39.9
2022-09-21T17:42:08.848Z,36.1
2022-09-21T17:47:27.061Z,36.1
2022-09-21T17:52:45.591Z,35.6
2022-09-21T17:58:04.037Z,37
2022-09-21T18:03:22.796Z,38
2022-09-21T18:08:41.027Z,39.2
2022-09-21T18:13:59.773Z,39.4
2022-09-21T18:19:18.273Z,39.9
2022-09-21T18:24:36.784Z,39
2022-09-21T18:29:55.214Z,39.3
2022-09-21T18:35:13.696Z,39.8
2022-09-21T18:40:32.054Z,39.5
2022-09-21T18:45:50.586Z,39.4
2022-09-21T18:51:09.032Z,39.4
2022-09-21T18:56:27.555Z,40
2022-09-21T19:01:46.202Z,39.7
2022-09-21T19:07:04.730Z,40.5
2022-09-21T19:12:23.228Z,38.1
2022-09-21T19:17:41.422Z,40
2022-09-21T19:22:59.910Z,40.9
2022-09-21T19:28:18.148Z,40.2
2022-09-21T19:33:52.180Z,40.2
2022-09-21T19:39:10.650Z,41
2022-09-21T19:44:28.907Z,40.2
2022-09-21T19:49:47.360Z,40.7
2022-09-21T19:55:06.138Z,40.8
2022-09-21T20:00:24.654Z,40.9
2022-09-21T20:05:42.838Z,41
2022-09-21T20:11:01.337Z,40.9
2022-09-21T20:16:20.491Z,40.9
2022-09-21T20:21:38.787Z,41.5
2022-09-21T20:26:57.495Z,40.1
2022-09-21T20:32:16.260Z,41.1
2022-09-21T20:37:34.714Z,40.4
2022-09-21T20:42:53.211Z,40.3
2022-09-21T20:48:11.736Z,40.4
2022-09-21T20:53:33.153Z,41
2022-09-21T20:58:51.952Z,40.3
2022-09-21T21:04:11.091Z,40.5
2022-09-21T21:09:29.951Z,40.4
2022-09-21T21:14:48.140Z,40.8
2022-09-21T21:20:06.060Z,40.8
2022-09-21T21:25:24.798Z,41.1
2022-09-21T21:30:43.004Z,40.7
2022-09-21T21:36:01.522Z,39.8
2022-09-21T21:41:19.711Z,42.8
2022-09-21T21:46:37.910Z,43.5
2022-09-21T21:51:59.427Z,43.8
2022-09-21T21:57:17.602Z,43.6
2022-09-21T22:02:36.071Z,43.2
2022-09-21T22:07:54.100Z,44.1
2022-09-21T22:13:12.000Z,43.8
2022-09-21T22:18:30.493Z,44
2022-09-21T22:23:48.747Z,43.8
2022-09-21T22:29:06.946Z,43.5
2022-09-21T22:34:24.871Z,44.4
2022-09-21T22:39:43.382Z,44.4
2022-09-21T22:45:02.147Z,43.7
2022-09-21T22:50:20.931Z,43.7
2022-09-21T22:55:39.484Z,44.2
2022-09-21T23:00:57.848Z,43.7
2022-09-21T23:06:15.747Z,43.6
2022-09-21T23:11:33.704Z,44.1
2022-09-21T23:16:52.163Z,43.9
2022-09-21T23:22:10.650Z,44.3
2022-09-21T23:27:28.882Z,44.1
2022-09-21T23:32:47.618Z,44.5
2022-09-21T23:38:06.387Z,44.2
2022-09-21T23:43:24.717Z,43.9
2022-09-21T23:48:42.879Z,44.5
2022-09-21T23:54:01.099Z,44
2022-09-21T23:59:19.338Z,44.6
